createdAt,value
2018-09-28T00:01:49.427Z,4.60
2018-09-28T00:04:17.954Z,4.60
2018-09-28T00:06:46.504Z,4.50
2018-09-28T00:09:15.114Z,4.47
2018-09-28T00:11:43.616Z,4.87
2018-09-28T00:14:12.025Z,4.27
2018-09-28T00:16:40.549Z,5.17
2018-09-28T00:19:09.040Z,4.83
2018-09-28T00:21:37.514Z,4.93
2018-09-28T00:24:05.925Z,4.67
2018-09-28T00:26:34.342Z,4.63
2018-09-28T00:29:02.985Z,5.40
2018-09-28T00:31:31.454Z,5.33
2018-09-28T00:33:59.973Z,5.07
2018-09-28T00:36:28.470Z,4.70
2018-09-28T00:38:56.789Z,5.13
2018-09-28T00:41:25.253Z,5.13
2018-09-28T00:43:53.706Z,5.30
2018-09-28T00:46:22.237Z,5.13
2018-09-28T00:48:50.646Z,5.23
2018-09-28T00:51:19.250Z,4.40
2018-09-28T00:53:47.717Z,5.30
2018-09-28T00:56:16.089Z,5.00
2018-09-28T00:58:44.565Z,5.17
2018-09-28T01:01:13.012Z,4.80
2018-09-28T01:03:41.456Z,4.73
2018-09-28T01:06:09.896Z,4.57
2018-09-28T01:08:38.406Z,4.43
2018-09-28T01:11:07.097Z,4.33
2018-09-28T01:13:35.572Z,3.87
2018-09-28T01:16:04.131Z,3.73
2018-09-28T01:18:32.621Z,3.43
2018-09-28T01:21:01.158Z,2.67
2018-09-28T01:23:29.656Z,2.97
2018-09-28T01:25:58.234Z,2.10
2018-09-28T01:28:26.750Z,1.57
2018-09-28T01:30:55.197Z,1.23
2018-09-28T01:33:23.616Z,1.30
2018-09-28T01:35:52.148Z,1.37
2018-09-28T01:38:20.676Z,1.10
2018-09-28T01:40:49.206Z,1.20
2018-09-28T01:43:17.920Z,1.07
2018-09-28T01:45:46.433Z,0.80
2018-09-28T01:48:14.869Z,1.20
2018-09-28T01:50:43.374Z,0.80
2018-09-28T01:53:11.874Z,1.30
2018-09-28T01:55:40.349Z,0.77
2018-09-28T01:58:08.772Z,0.80
2018-09-28T02:00:37.240Z,0.70
2018-09-28T02:03:05.810Z,0.90
2018-09-28T02:05:34.260Z,0.80
2018-09-28T02:08:02.680Z,0.70
2018-09-28T02:10:31.240Z,0.80
2018-09-28T02:12:59.597Z,0.87
2018-09-28T02:15:28.106Z,1.00
2018-09-28T02:17:56.557Z,1.03
2018-09-28T02:20:25.212Z,0.93
2018-09-28T02:22:53.749Z,1.17
2018-09-28T02:25:22.229Z,0.90
2018-09-28T02:27:50.689Z,0.93
2018-09-28T02:30:19.276Z,0.80
2018-09-28T02:32:47.813Z,0.87
2018-09-28T02:35:16.424Z,1.13
2018-09-28T02:37:45.084Z,0.97
2018-09-28T02:40:13.725Z,0.93
2018-09-28T02:42:42.297Z,1.07
2018-09-28T02:45:10.949Z,1.00
2018-09-28T02:47:39.490Z,1.20
2018-09-28T02:50:08.100Z,1.67
2018-09-28T02:52:36.597Z,1.40
2018-09-28T02:55:05.109Z,0.80
2018-09-28T02:57:33.582Z,1.07
2018-09-28T03:00:02.007Z,0.80
2018-09-28T03:02:30.507Z,0.83
2018-09-28T03:04:58.989Z,0.80
2018-09-28T03:07:27.474Z,0.90
2018-09-28T03:09:56.037Z,1.17
2018-09-28T03:12:24.516Z,0.93
2018-09-28T03:14:53.151Z,1.27
2018-09-28T03:17:21.656Z,1.00
2018-09-28T03:19:50.138Z,0.83
2018-09-28T03:22:18.565Z,1.27
2018-09-28T03:24:47.101Z,1.13
2018-09-28T03:27:15.523Z,1.40
2018-09-28T03:29:44.121Z,0.97
2018-09-28T03:32:12.537Z,1.13
2018-09-28T03:34:41.141Z,1.20
2018-09-28T03:37:09.684Z,1.00
2018-09-28T03:39:38.104Z,1.00
2018-09-28T03:42:06.594Z,0.63
2018-09-28T03:44:35.098Z,0.90
2018-09-28T03:47:03.733Z,1.23
2018-09-28T03:49:32.206Z,1.20
2018-09-28T03:52:00.653Z,0.90
2018-09-28T03:54:29.149Z,0.90
2018-09-28T03:56:57.659Z,1.20
2018-09-28T03:59:26.088Z,1.13
2018-09-28T04:01:54.485Z,1.10
2018-09-28T04:04:23.064Z,1.47
2018-09-28T04:06:51.545Z,0.73
2018-09-28T04:09:20.062Z,0.90
2018-09-28T04:11:48.555Z,0.93
2018-09-28T04:14:17.274Z,0.97
2018-09-28T04:16:45.897Z,1.23
2018-09-28T04:19:14.462Z,1.00
2018-09-28T04:21:47.233Z,0.83
2018-09-28T04:24:15.677Z,0.87
2018-09-28T04:26:44.349Z,0.90
2018-09-28T04:29:12.840Z,0.90
2018-09-28T04:31:41.400Z,0.77
2018-09-28T04:34:09.830Z,1.30
2018-09-28T04:36:38.377Z,0.97
2018-09-28T04:39:07.305Z,0.93
2018-09-28T04:41:35.889Z,1.20
2018-09-28T04:44:04.366Z,0.93
2018-09-28T04:46:32.997Z,1.00
2018-09-28T04:49:03.581Z,1.20
2018-09-28T04:51:32.329Z,1.00
2018-09-28T04:54:00.852Z,1.10
2018-09-28T04:56:29.639Z,0.80
2018-09-28T04:59:05.266Z,0.80
2018-09-28T05:01:34.076Z,0.97
2018-09-28T05:04:03.576Z,0.93
2018-09-28T05:06:32.277Z,1.40
2018-09-28T05:11:58.586Z,1.20
2018-09-28T05:14:27.036Z,1.10
2018-09-28T05:16:55.536Z,1.00
2018-09-28T05:19:25.168Z,1.10
2018-09-28T05:21:53.567Z,1.62
2018-09-28T05:24:22.565Z,8.08
2018-09-28T05:26:50.997Z,2.00
2018-09-28T05:29:19.581Z,1.40
2018-09-28T05:31:48.210Z,1.83
2018-09-28T05:34:16.765Z,2.13
2018-09-28T05:36:45.383Z,2.00
2018-09-28T05:39:13.944Z,2.20
2018-09-28T05:41:42.413Z,1.70
2018-09-28T05:44:11.000Z,1.37
2018-09-28T05:46:39.509Z,1.63
2018-09-28T05:49:08.037Z,2.00
2018-09-28T05:51:36.521Z,1.50
2018-09-28T05:54:05.117Z,1.90
2018-09-28T05:56:33.725Z,1.33
2018-09-28T05:59:07.582Z,1.47
2018-09-28T06:01:41.846Z,2.00
2018-09-28T06:04:15.755Z,1.43
2018-09-28T06:06:44.304Z,1.53
2018-09-28T06:09:12.837Z,1.60
2018-09-28T06:11:41.287Z,1.40
2018-09-28T06:14:10.008Z,1.20
2018-09-28T06:16:38.593Z,1.40
2018-09-28T06:19:07.215Z,1.23
2018-09-28T06:21:35.824Z,1.60
2018-09-28T06:24:04.554Z,1.47
2018-09-28T06:26:33.115Z,1.60
2018-09-28T06:29:01.565Z,1.83
2018-09-28T06:31:30.301Z,1.30
2018-09-28T06:33:58.814Z,1.50
2018-09-28T06:36:27.556Z,0.97
2018-09-28T06:38:56.344Z,1.13
2018-09-28T06:41:26.826Z,1.60
2018-09-28T06:43:55.560Z,1.13
2018-09-28T06:46:24.342Z,1.10
2018-09-28T06:48:52.812Z,1.23
2018-09-28T06:51:21.380Z,1.37
2018-09-28T06:53:50.057Z,0.87
2018-09-28T06:56:18.539Z,1.30
2018-09-28T06:58:47.116Z,1.03
2018-09-28T07:01:15.605Z,1.37
2018-09-28T07:03:44.165Z,1.30
2018-09-28T07:06:12.655Z,1.17
2018-09-28T07:08:41.217Z,1.50
2018-09-28T07:11:09.697Z,1.33
2018-09-28T07:13:38.303Z,1.37
2018-09-28T07:16:06.884Z,1.10
2018-09-28T07:18:35.357Z,1.25
2018-09-28T07:21:03.866Z,1.27
2018-09-28T07:23:32.400Z,1.30
2018-09-28T07:26:00.921Z,1.50
2018-09-28T07:28:29.440Z,1.57
2018-09-28T07:30:58.041Z,1.00
2018-09-28T07:33:27.823Z,1.30
2018-09-28T07:35:57.087Z,1.20
2018-09-28T07:38:25.845Z,1.27
2018-09-28T07:40:54.607Z,1.10
2018-09-28T07:43:23.503Z,1.30
2018-09-28T07:45:54.999Z,0.93
2018-09-28T07:48:23.565Z,1.10
2018-09-28T07:50:52.070Z,1.10
2018-09-28T07:53:20.810Z,1.10
2018-09-28T07:55:49.756Z,0.90
2018-09-28T07:58:18.436Z,1.00
2018-09-28T08:00:47.040Z,1.00
2018-09-28T08:03:15.654Z,1.10
2018-09-28T08:05:44.198Z,1.27
2018-09-28T08:08:12.788Z,1.33
2018-09-28T08:10:41.590Z,1.10
2018-09-28T08:13:10.290Z,1.00
2018-09-28T08:15:38.959Z,0.87
2018-09-28T08:18:07.753Z,1.10
2018-09-28T08:20:36.340Z,1.20
2018-09-28T08:23:04.917Z,1.00
2018-09-28T08:25:33.682Z,0.70
2018-09-28T08:28:02.190Z,1.00
2018-09-28T08:30:30.812Z,1.00
2018-09-28T08:32:59.402Z,1.10
2018-09-28T08:35:27.982Z,1.03
2018-09-28T08:37:56.646Z,0.90
2018-09-28T08:40:25.233Z,1.00
2018-09-28T08:42:53.896Z,0.73
2018-09-28T08:45:22.647Z,0.87
2018-09-28T08:47:51.567Z,0.97
2018-09-28T08:50:20.061Z,0.97
2018-09-28T08:52:48.592Z,1.23
2018-09-28T08:55:17.118Z,0.90
2018-09-28T08:57:46.632Z,1.40
2018-09-28T09:00:15.197Z,0.90
2018-09-28T09:02:43.969Z,0.80
2018-09-28T09:05:12.415Z,0.93
2018-09-28T09:07:40.874Z,0.90
2018-09-28T09:10:09.431Z,1.00
2018-09-28T09:12:37.985Z,0.80
2018-09-28T09:15:06.506Z,1.00
2018-09-28T09:17:35.182Z,1.00
2018-09-28T09:20:03.782Z,0.90
2018-09-28T09:22:32.265Z,0.80
2018-09-28T09:25:00.972Z,0.90
2018-09-28T09:27:29.659Z,0.87
2018-09-28T09:29:58.150Z,1.00
2018-09-28T09:32:26.621Z,1.20
2018-09-28T09:34:55.168Z,0.87
2018-09-28T09:37:23.707Z,0.87
2018-09-28T09:39:52.193Z,0.77
2018-09-28T09:42:20.614Z,0.80
2018-09-28T09:44:49.149Z,1.10
2018-09-28T09:47:17.741Z,0.80
2018-09-28T09:49:46.298Z,0.83
2018-09-28T09:52:14.971Z,1.03
2018-09-28T09:54:44.482Z,0.80
2018-09-28T09:57:13.137Z,0.87
2018-09-28T09:59:41.576Z,0.63
2018-09-28T10:02:15.498Z,1.00
2018-09-28T10:04:44.232Z,1.30
2018-09-28T10:07:13.074Z,1.00
2018-09-28T10:09:42.025Z,0.87
2018-09-28T10:12:10.563Z,1.20
2018-09-28T10:14:39.295Z,1.20
2018-09-28T10:17:08.124Z,1.10
2018-09-28T10:19:37.041Z,1.03
2018-09-28T10:22:05.440Z,0.80
2018-09-28T10:24:34.071Z,0.80
2018-09-28T10:27:02.798Z,0.80
2018-09-28T10:29:31.376Z,0.90
2018-09-28T10:32:00.192Z,0.83
2018-09-28T10:34:28.723Z,1.30
2018-09-28T10:36:57.325Z,0.70
2018-09-28T10:39:26.035Z,0.97
2018-09-28T10:41:54.745Z,1.00
2018-09-28T10:44:23.408Z,1.27
2018-09-28T10:46:52.128Z,1.30
2018-09-28T10:49:21.591Z,1.10
2018-09-28T10:51:51.746Z,1.00
2018-09-28T10:54:20.182Z,1.00
2018-09-28T10:56:48.630Z,1.30
2018-09-28T10:59:17.141Z,1.10
2018-09-28T11:01:45.608Z,1.07
2018-09-28T11:04:14.258Z,0.90
2018-09-28T11:06:42.845Z,1.10
2018-09-28T11:09:12.305Z,1.23
2018-09-28T11:11:41.541Z,1.70
2018-09-28T11:14:10.429Z,1.60
2018-09-28T11:16:39.428Z,1.33
2018-09-28T11:19:08.118Z,0.90
2018-09-28T11:21:36.575Z,0.90
2018-09-28T11:24:05.120Z,1.17
2018-09-28T11:26:33.598Z,0.97
2018-09-28T11:29:02.050Z,1.10
2018-09-28T11:31:30.534Z,1.10
2018-09-28T11:33:59.114Z,0.87
2018-09-28T11:36:27.553Z,0.83
2018-09-28T11:38:57.058Z,1.13
2018-09-28T11:41:25.549Z,1.10
2018-09-28T11:43:54.036Z,0.90
2018-09-28T11:46:22.629Z,0.77
2018-09-28T11:48:51.124Z,1.00
2018-09-28T11:51:19.988Z,1.07
2018-09-28T11:56:41.549Z,0.80
2018-09-28T12:04:58.362Z,0.80
2018-09-28T12:07:30.730Z,0.73
2018-09-28T12:10:00.366Z,0.83
2018-09-28T12:12:30.288Z,1.20
2018-09-28T12:14:58.741Z,0.67
2018-09-28T12:17:27.239Z,1.00
2018-09-28T12:19:56.373Z,0.63
2018-09-28T12:22:24.998Z,0.67
2018-09-28T12:24:53.548Z,0.90
2018-09-28T12:27:22.251Z,0.87
2018-09-28T12:29:50.791Z,0.77
2018-09-28T12:32:19.185Z,0.90
2018-09-28T12:34:47.986Z,0.60
2018-09-28T12:37:19.557Z,1.10
2018-09-28T12:39:48.454Z,1.10
2018-09-28T12:42:17.163Z,0.80
2018-09-28T12:44:45.789Z,1.13
2018-09-28T12:47:14.308Z,1.10
2018-09-28T12:49:42.778Z,0.93
2018-09-28T12:52:11.317Z,0.80
2018-09-28T12:54:40.038Z,0.87
2018-09-28T12:57:08.692Z,1.10
2018-09-28T13:02:50.204Z,1.10
2018-09-28T13:05:18.935Z,0.80
2018-09-28T13:07:47.530Z,1.13
2018-09-28T13:10:28.641Z,0.80
2018-09-28T13:12:57.307Z,1.10
2018-09-28T13:15:26.092Z,0.93
2018-09-28T13:17:54.781Z,1.10
2018-09-28T13:20:23.559Z,1.37
2018-09-28T13:22:52.316Z,0.90
2018-09-28T13:25:29.215Z,0.83
2018-09-28T13:27:58.949Z,1.13
2018-09-28T13:33:27.670Z,0.83
2018-09-28T13:35:59.079Z,1.00
2018-09-28T13:40:11.441Z,1.10
2018-09-28T13:42:40.196Z,0.97
2018-09-28T13:45:27.735Z,0.80
2018-09-28T13:47:59.464Z,1.03
2018-09-28T13:50:36.043Z,0.93
2018-09-28T13:53:04.565Z,0.83
2018-09-28T13:55:33.166Z,1.00
2018-09-28T13:58:06.807Z,1.13
2018-09-28T14:00:37.159Z,1.17
2018-09-28T14:03:05.753Z,0.60
2018-09-28T14:05:34.384Z,1.17
2018-09-28T14:08:03.043Z,1.20
2018-09-28T14:10:31.760Z,1.10
2018-09-28T14:13:24.670Z,0.90
2018-09-28T14:15:55.097Z,0.60
2018-09-28T14:18:23.936Z,0.87
2018-09-28T14:20:52.855Z,0.80
2018-09-28T14:23:21.469Z,1.07
2018-09-28T14:28:42.446Z,1.00
2018-09-28T14:31:11.046Z,0.90
2018-09-28T14:33:50.357Z,0.80
2018-09-28T14:36:19.495Z,0.70
2018-09-28T14:38:47.996Z,0.93
2018-09-28T14:41:16.608Z,0.93
2018-09-28T14:43:45.548Z,0.73
2018-09-28T14:46:28.287Z,0.60
2018-09-28T14:48:58.068Z,0.80
2018-09-28T14:51:29.892Z,0.37
2018-09-28T14:54:27.772Z,0.90
2018-09-28T14:56:59.146Z,0.70
2018-09-28T14:59:27.880Z,0.87
2018-09-28T15:01:56.642Z,1.00
2018-09-28T15:04:25.395Z,0.80
2018-09-28T15:06:54.148Z,1.23
2018-09-28T15:09:47.861Z,0.80
2018-09-28T15:12:16.588Z,0.80
2018-09-28T15:14:58.700Z,0.80
2018-09-28T15:17:27.515Z,1.03
2018-09-28T15:19:56.776Z,0.73
2018-09-28T15:22:25.484Z,0.77
2018-09-28T15:24:54.010Z,0.87
2018-09-28T15:27:22.566Z,0.70
2018-09-28T15:29:51.357Z,0.80
2018-09-28T15:32:21.961Z,0.70
2018-09-28T15:34:51.420Z,0.80
2018-09-28T15:37:28.440Z,1.13
2018-09-28T15:40:02.669Z,0.90
2018-09-28T15:42:31.330Z,0.77
2018-09-28T15:44:59.877Z,0.90
2018-09-28T15:47:28.571Z,1.67
2018-09-28T15:49:57.030Z,0.80
2018-09-28T15:52:25.593Z,1.03
2018-09-28T15:55:29.137Z,0.63
2018-09-28T15:57:59.296Z,0.80
2018-09-28T16:00:27.963Z,0.70
2018-09-28T16:04:00.849Z,1.03
2018-09-28T16:12:01.896Z,0.67
2018-09-28T16:14:30.558Z,0.70
2018-09-28T16:16:59.693Z,0.80
2018-09-28T16:19:28.273Z,0.90
2018-09-28T16:21:56.830Z,1.10
2018-09-28T16:24:25.504Z,0.77
2018-09-28T16:26:54.195Z,0.90
2018-09-28T16:29:25.819Z,0.80
2018-09-28T16:31:55.426Z,1.10
2018-09-28T16:34:24.131Z,1.00
2018-09-28T16:36:52.850Z,1.20
2018-09-28T16:39:21.398Z,1.80
2018-09-28T16:41:49.993Z,0.80
2018-09-28T16:44:33.587Z,1.23
2018-09-28T16:47:03.902Z,0.90
2018-09-28T16:49:42.550Z,1.20
2018-09-28T16:52:29.207Z,1.03
2018-09-28T16:54:59.517Z,1.57
2018-09-28T16:57:28.038Z,1.33
2018-09-28T16:59:57.702Z,1.50
2018-09-28T17:02:28.388Z,0.87
2018-09-28T17:04:58.870Z,0.90
2018-09-28T17:07:27.461Z,0.80
2018-09-28T17:09:56.520Z,0.80
2018-09-28T17:12:25.292Z,0.90
2018-09-28T17:14:56.528Z,1.00
2018-09-28T17:17:25.875Z,0.90
2018-09-28T17:19:56.379Z,1.27
2018-09-28T17:22:25.477Z,1.13
2018-09-28T17:24:54.800Z,1.10
2018-09-28T17:27:23.289Z,1.30
2018-09-28T17:29:51.829Z,1.07
2018-09-28T17:32:23.898Z,1.23
2018-09-28T17:34:52.772Z,1.10
2018-09-28T17:37:24.419Z,1.10
2018-09-28T17:39:53.182Z,1.30
2018-09-28T17:42:31.016Z,0.90
2018-09-28T17:44:59.713Z,1.10
2018-09-28T17:47:28.393Z,1.23
2018-09-28T17:49:57.261Z,1.52
2018-09-28T17:52:25.821Z,1.20
2018-09-28T17:54:54.450Z,1.10
2018-09-28T17:57:29.047Z,1.60
2018-09-28T17:59:58.568Z,1.90
2018-09-28T18:02:29.460Z,1.80
2018-09-28T18:04:58.717Z,1.92
2018-09-28T18:07:30.744Z,2.47
2018-09-28T18:13:02.505Z,1.97
2018-09-28T18:15:31.032Z,1.73
2018-09-28T18:17:59.485Z,1.70
2018-09-28T18:20:27.972Z,1.73
2018-09-28T18:22:56.506Z,1.47
2018-09-28T18:25:24.888Z,1.47
2018-09-28T18:27:53.319Z,1.40
2018-09-28T18:30:21.764Z,1.37
2018-09-28T18:32:50.195Z,1.77
2018-09-28T18:35:18.969Z,1.30
2018-09-28T18:37:47.469Z,1.20
2018-09-28T18:40:16.848Z,2.37
2018-09-28T18:42:45.663Z,2.63
2018-09-28T18:45:14.317Z,2.80
2018-09-28T18:47:43.223Z,1.83
2018-09-28T18:50:12.324Z,1.97
2018-09-28T18:52:40.761Z,1.37
2018-09-28T18:55:09.637Z,1.57
2018-09-28T18:57:39.287Z,1.63
2018-09-28T19:00:07.829Z,1.73
2018-09-28T19:02:36.447Z,1.27
2018-09-28T19:05:06.292Z,1.50
2018-09-28T19:07:39.701Z,1.40
2018-09-28T19:10:18.761Z,1.10
2018-09-28T19:16:11.903Z,1.10
2018-09-28T19:18:50.015Z,1.03
2018-09-28T19:37:19.695Z,1.00
2018-09-28T19:39:48.466Z,1.07
2018-09-28T19:42:17.222Z,1.63
2018-09-28T19:44:46.327Z,1.10
2018-09-28T19:47:20.760Z,1.53
2018-09-28T20:04:01.446Z,1.13
2018-09-28T20:06:30.043Z,1.50
2018-09-28T20:08:58.718Z,1.37
2018-09-28T20:11:27.148Z,1.30
2018-09-28T20:13:59.208Z,1.43
2018-09-28T20:30:06.684Z,1.20
2018-09-28T20:46:20.806Z,1.40
2018-09-28T20:48:59.348Z,1.43
2018-09-28T20:51:30.951Z,1.33
2018-09-28T20:54:00.282Z,1.27
2018-09-28T20:56:30.574Z,1.13
2018-09-28T20:59:00.147Z,1.23
2018-09-28T21:01:29.037Z,1.40
2018-09-28T21:03:59.040Z,1.20
2018-09-28T21:06:27.702Z,1.23
2018-09-28T21:08:56.348Z,1.53
2018-09-28T21:11:25.783Z,1.60
2018-09-28T21:13:54.574Z,1.33
2018-09-28T21:16:23.206Z,1.20
2018-09-28T21:18:51.886Z,1.07
2018-09-28T21:21:20.497Z,1.30
2018-09-28T21:23:49.030Z,1.27
2018-09-28T21:26:17.500Z,1.40
2018-09-28T21:28:45.964Z,1.50
2018-09-28T21:31:14.533Z,1.37
2018-09-28T21:33:43.142Z,1.50
2018-09-28T21:36:11.762Z,1.67
2018-09-28T21:38:40.375Z,1.20
2018-09-28T21:41:08.873Z,1.50
2018-09-28T21:43:37.531Z,1.37
2018-09-28T21:46:06.210Z,1.20
2018-09-28T21:48:34.867Z,1.27
2018-09-28T21:51:03.420Z,1.63
2018-09-28T21:53:31.852Z,1.30
2018-09-28T21:56:00.381Z,1.40
2018-09-28T21:58:29.153Z,1.20
2018-09-28T22:00:58.476Z,1.27
2018-09-28T22:03:27.063Z,1.30
2018-09-28T22:05:55.813Z,1.80
2018-09-28T22:08:24.324Z,1.63
2018-09-28T22:10:52.908Z,1.40
2018-09-28T22:13:21.406Z,1.70
2018-09-28T22:15:49.969Z,1.63
2018-09-28T22:18:18.592Z,1.70
2018-09-28T22:20:47.204Z,1.50
2018-09-28T22:23:15.832Z,1.67
2018-09-28T22:25:44.404Z,1.80
2018-09-28T22:28:12.940Z,1.70
2018-09-28T22:30:41.577Z,1.70
2018-09-28T22:33:10.339Z,1.90
2018-09-28T22:35:39.068Z,1.57
2018-09-28T22:38:07.558Z,1.87
2018-09-28T22:40:36.048Z,1.83
2018-09-28T22:43:04.624Z,1.43
2018-09-28T22:45:33.103Z,2.00
2018-09-28T22:48:01.789Z,1.67
2018-09-28T22:50:30.344Z,2.27
2018-09-28T22:52:58.972Z,2.47
2018-09-28T22:55:27.573Z,2.10
2018-09-28T22:57:56.045Z,1.90
2018-09-28T23:00:24.644Z,1.83
2018-09-28T23:02:53.150Z,1.70
2018-09-28T23:05:21.730Z,1.77
2018-09-28T23:07:50.300Z,1.50
2018-09-28T23:10:18.793Z,1.53
2018-09-28T23:12:47.490Z,1.87
2018-09-28T23:15:16.073Z,1.73
2018-09-28T23:17:44.629Z,1.47
2018-09-28T23:20:13.060Z,1.80
2018-09-28T23:22:41.521Z,1.83
2018-09-28T23:25:10.113Z,2.00
2018-09-28T23:27:38.648Z,1.60
2018-09-28T23:30:07.476Z,1.80
2018-09-28T23:32:59.212Z,1.90
2018-09-28T23:35:27.777Z,1.40
2018-09-28T23:37:59.683Z,1.43
2018-09-28T23:40:29.556Z,1.43
2018-09-28T23:42:59.898Z,1.60
2018-09-28T23:45:28.477Z,1.40
2018-09-28T23:47:59.059Z,1.23
2018-09-28T23:50:27.712Z,1.60
2018-09-28T23:52:56.293Z,1.43
2018-09-28T23:55:29.881Z,1.70
2018-09-28T23:57:59.859Z,1.67
